KBCB/BCB METAR and TAF weather

Enter ICAO airport designator
Station Type Date Time Source
KBCB METAR 2020/07/14 21:55 UTC NOAA

KBCB 142155Z AUTO 00000KT 10SM SCT070 28/15 A3014 RMK AO2 T02830150


Station Type Date Time Source
KBCB Decoded METAR 2020/07/14 21:55 UTC NOAA

Virginia Tech Airport, VA, United States (KBCB) 37-13N 080-25W
Jul 14, 2020 - 05:55 PM EDT / 2020.07.14 2155 UTC
Wind: Calm:0
Visibility: 10 mile(s):0
Sky conditions: partly cloudy
Temperature: 82.9 F (28.3 C)
Dew Point: 59.0 F (15.0 C)
Relative Humidity: 44%
Pressure (altimeter): 30.14 in. Hg (1020 hPa)
ob: KBCB 142155Z AUTO 00000KT 10SM SCT070 28/15 A3014 RMK AO2 T02830150
cycle: 22

Station Type Date Time Source
KBCB TAF 2020/07/14 18:45 UTC NOAA

TAF KBCB 141735Z 1418/1518 VRB03KT P6SM SCT060

Example: see airport list